Time;durP1;ratioP1;P1;durP2;ratioP2;P2;SDS_P1;SDS_P2;PMS_P1;PMS_P2;Temp;Humidity;BMP_temperature;BMP_pressure;BME280_temperature;BME280_humidity;BME280_pressure;Samples;Min_cycle;Max_cycle;Signal;HPM_P1;HPM_P2
2021/06/06 00:01:46;;;;;;;21.42;9.03;;;;;;;18.48;53.48;101125.50;5008473;58;1141130;-75
2021/06/06 00:06:52;;;;;;;19.37;8.98;;;;;;;18.50;53.38;101124.82;5008709;58;1141056;-76
2021/06/06 00:11:58;;;;;;;16.02;8.28;;;;;;;18.50;53.35;101131.52;5045245;58;1141080;-76
2021/06/06 00:17:09;;;;;;;15.08;8.15;;;;;;;18.39;53.27;101137.12;4915262;58;1140975;-73
2021/06/06 00:22:15;;;;;;;16.87;7.50;;;;;;;18.25;53.42;101133.16;4915558;58;1140973;-74
2021/06/06 00:27:23;;;;;;;14.07;6.72;;;;;;;18.16;53.64;101125.56;4915264;58;1140987;-74
2021/06/06 00:32:30;;;;;;;20.10;7.93;;;;;;;18.12;53.56;101128.69;4915154;58;1140648;-76
2021/06/06 00:37:36;;;;;;;18.57;7.37;;;;;;;18.01;53.92;101124.91;4915983;58;1140438;-73
2021/06/06 00:42:46;;;;;;;41.77;13.53;;;;;;;17.80;53.90;101127.36;4916396;58;1140626;-73
2021/06/06 00:47:53;;;;;;;25.85;10.68;;;;;;;17.76;54.69;101136.67;4915926;58;1143487;-74
2021/06/06 00:53:05;;;;;;;25.57;10.00;;;;;;;17.69;54.51;101132.94;4916036;58;1142784;-75
2021/06/06 00:58:15;;;;;;;24.27;9.73;;;;;;;17.68;54.89;101125.90;4915915;58;1143457;-74
2021/06/06 01:03:25;;;;;;;27.40;9.60;;;;;;;17.72;54.94;101130.46;4907105;58;1141014;-74
2021/06/06 01:08:33;;;;;;;20.80;10.00;;;;;;;17.70;54.84;101129.27;4915641;58;1140958;-75
2021/06/06 01:13:56;;;;;;;27.90;10.27;;;;;;;17.68;54.88;101119.70;4940154;57;1143318;-74
2021/06/06 01:19:07;;;;;;;16.32;7.33;;;;;;;17.61;54.76;101115.41;5063797;57;1143288;-74
2021/06/06 01:24:21;;;;;;;19.80;6.57;;;;;;;17.23;54.24;101115.13;5083632;57;1141212;-75
2021/06/06 01:30:02;;;;;;;9.40;5.30;;;;;;;16.98;54.86;101116.61;5083896;57;1141389;-75
2021/06/06 01:35:32;;;;;;;10.10;6.00;;;;;;;16.67;55.00;101125.33;5084050;57;1138389;-75
2021/06/06 01:40:40;;;;;;;7.60;6.17;;;;;;;16.34;55.55;101122.63;5047934;57;1140635;-76
2021/06/06 01:45:58;;;;;;;10.68;6.30;;;;;;;16.38;56.26;101122.67;5083994;57;1138819;-73
2021/06/06 01:51:12;;;;;;;11.20;7.57;;;;;;;16.46;56.47;101123.31;5064197;57;1140495;-73
2021/06/06 01:56:20;;;;;;;;;;;;;;;16.40;56.42;101123.87;5067895;57;1140623;-74
2021/06/06 02:01:29;;;;;;;11.50;7.50;;;;;;;16.31;56.76;101127.40;5096135;57;976043;-76
2021/06/06 02:06:52;;;;;;;12.53;6.80;;;;;;;16.32;57.03;101124.59;5064306;57;1138680;-75
2021/06/06 02:12:04;;;;;;;9.05;6.10;;;;;;;16.33;57.11;101127.61;5083092;57;1140656;-74
2021/06/06 02:17:19;;;;;;;16.00;7.65;;;;;;;16.36;57.25;101133.98;4979001;57;1138837;-74
2021/06/06 02:22:35;;;;;;;17.13;7.67;;;;;;;16.44;57.18;101135.47;4974393;58;1140672;-74
2021/06/06 02:27:42;;;;;;;14.43;7.90;;;;;;;16.44;57.18;101135.47;4975877;58;1141188;-73
2021/06/06 02:33:26;;;;;;;14.67;6.67;;;;;;;16.46;57.13;101143.34;4976275;58;1140660;-74
2021/06/06 02:38:56;;;;;;;9.00;5.45;;;;;;;16.45;57.10;101136.31;4975559;58;1141286;-74
2021/06/06 02:44:24;;;;;;;10.97;7.70;;;;;;;16.16;56.46;101137.16;4976430;58;1138737;-76
2021/06/06 02:49:36;;;;;;;14.50;6.20;;;;;;;16.11;57.14;101140.73;4975276;58;1140673;-76
2021/06/06 02:54:47;;;;;;;16.10;9.37;;;;;;;16.08;57.00;101134.83;4975885;58;1140781;-75
2021/06/06 03:00:08;;;;;;;23.55;9.63;;;;;;;16.08;57.35;101136.16;4975390;58;1140988;-74
2021/06/06 03:05:19;;;;;;;12.80;7.10;;;;;;;16.05;57.25;101139.94;4975752;58;1140529;-77
2021/06/06 03:10:30;;;;;;;8.87;5.90;;;;;;;15.92;57.34;101138.52;4975835;58;1140673;-76
2021/06/06 03:15:42;;;;;;;13.87;6.50;;;;;;;15.91;57.93;101135.50;4976212;58;1138430;-76
2021/06/06 03:20:53;;;;;;;10.40;4.63;;;;;;;15.94;58.50;101136.56;4975785;58;1141046;-76
2021/06/06 03:26:12;;;;;;;10.23;5.97;;;;;;;15.73;58.13;101141.53;4975736;58;1141189;-75
2021/06/06 03:31:30;;;;;;;11.30;6.70;;;;;;;15.46;58.35;101140.77;4975001;58;1140730;-76
2021/06/06 03:36:47;;;;;;;12.23;6.20;;;;;;;15.46;59.05;101143.44;4975709;58;1140537;-75
2021/06/06 03:42:12;;;;;;;7.43;6.07;;;;;;;15.54;59.35;101139.27;4915513;58;1140475;-74
2021/06/06 03:47:20;;;;;;;12.57;6.67;;;;;;;15.62;59.68;101139.45;4915787;58;1138566;-77
2021/06/06 03:52:33;;;;;;;22.80;8.80;;;;;;;15.77;60.29;101142.08;4915500;58;1140657;-77
2021/06/06 03:57:36;;;;;;;18.37;7.07;;;;;;;15.88;60.03;101143.31;4915309;58;1140746;-76
2021/06/06 04:02:46;;;;;;;11.00;6.57;;;;;;;15.89;59.83;101141.50;4915294;58;1140760;-75
2021/06/06 04:07:54;;;;;;;9.63;6.50;;;;;;;15.77;59.90;101136.25;4915234;58;1140906;-74
2021/06/06 04:13:02;;;;;;;8.20;6.30;;;;;;;15.80;60.72;101141.33;4916768;58;1139078;-75
2021/06/06 04:18:19;;;;;;;8.27;5.40;;;;;;;15.88;61.21;101139.31;4916603;57;1139220;-75
2021/06/06 04:23:26;;;;;;;11.17;5.13;;;;;;;15.92;61.24;101135.37;4916466;58;1139225;-73
2021/06/06 04:28:36;;;;;;;7.53;6.50;;;;;;;15.96;61.21;101129.27;4916409;58;1141420;-76
2021/06/06 04:33:43;;;;;;;6.70;5.13;;;;;;;16.06;61.29;101137.63;4916244;58;1139101;-74
2021/06/06 04:38:51;;;;;;;15.30;5.50;;;;;;;16.15;61.08;101139.48;4916829;58;1139081;-74
2021/06/06 04:43:59;;;;;;;12.23;5.15;;;;;;;16.31;61.22;101135.41;4916703;58;1147193;-76
2021/06/06 04:49:05;;;;;;;8.03;5.47;;;;;;;16.45;61.15;101135.82;4917143;58;1142526;-75
2021/06/06 04:54:11;;;;;;;13.70;5.97;;;;;;;16.58;60.94;101132.84;4916759;58;1138365;-76
2021/06/06 04:59:18;;;;;;;7.50;5.93;;;;;;;16.64;60.77;101133.66;4907654;58;1140500;-74
2021/06/06 05:04:24;;;;;;;8.93;6.03;;;;;;;16.68;60.87;101136.86;4916380;58;1138936;-75
2021/06/06 05:09:29;;;;;;;6.17;5.13;;;;;;;16.73;61.48;101130.61;4916499;58;1139136;-75
2021/06/06 05:14:37;;;;;;;12.50;6.00;;;;;;;16.79;61.31;101131.38;4916432;58;1138922;-77
2021/06/06 05:19:43;;;;;;;12.37;5.77;;;;;;;16.97;61.32;101130.11;4933428;57;1141052;-76
2021/06/06 05:24:51;;;;;;;8.97;5.90;;;;;;;17.16;61.07;101130.89;5064444;57;1141162;-74
2021/06/06 05:29:58;;;;;;;10.50;6.00;;;;;;;17.34;60.86;101131.46;5064510;57;1139213;-75
2021/06/06 05:35:05;;;;;;;6.83;6.23;;;;;;;17.56;60.98;101131.92;5064219;57;1141141;-73
2021/06/06 05:40:13;;;;;;;12.57;6.93;;;;;;;17.80;60.80;101139.41;5064561;57;1138897;-73
2021/06/06 05:45:22;;;;;;;13.00;6.00;;;;;;;17.97;60.53;101139.58;5064134;57;1141116;-75
2021/06/06 05:50:33;;;;;;;225.40;16.87;;;;;;;18.15;60.50;101140.44;5063915;57;1140994;-77
2021/06/06 05:55:48;;;;;;;12.27;6.73;;;;;;;18.42;60.13;101139.00;5063239;57;1145303;-73
2021/06/06 06:00:56;;;;;;;7.10;6.03;;;;;;;18.67;59.52;101129.84;5083837;57;1140916;-74
2021/06/06 06:06:02;;;;;;;5.83;5.20;;;;;;;18.87;59.33;101136.19;5064230;57;1146054;-73
2021/06/06 06:11:12;;;;;;;14.13;6.43;;;;;;;19.06;59.35;101131.62;5064145;57;1139230;-77
2021/06/06 06:16:23;;;;;;;8.57;6.23;;;;;;;19.28;58.97;101131.05;5063994;57;1141210;-75
2021/06/06 06:21:31;;;;;;;7.58;6.10;;;;;;;19.55;58.79;101133.56;5063878;57;1139120;-75
2021/06/06 06:26:38;;;;;;;9.33;6.03;;;;;;;19.79;58.55;101143.53;5064281;57;1139210;-73
2021/06/06 06:31:48;;;;;;;10.72;6.35;;;;;;;19.99;58.61;101143.59;5065197;57;1258288;-74
2021/06/06 06:36:55;;;;;;;9.45;5.90;;;;;;;20.20;58.38;101139.06;5026602;57;1141160;-73
2021/06/06 06:42:02;;;;;;;9.58;5.67;;;;;;;20.42;58.29;101139.46;5057916;57;1138901;-71
2021/06/06 06:47:08;;;;;;;8.23;5.10;;;;;;;20.61;57.38;101141.81;5063879;57;1138843;-76
2021/06/06 06:52:14;;;;;;;6.80;5.30;;;;;;;20.81;56.95;101142.28;5063547;57;1138442;-76
2021/06/06 06:57:20;;;;;;;12.93;5.33;;;;;;;20.98;57.25;101145.28;5063802;57;1138554;-73
2021/06/06 07:02:26;;;;;;;6.17;5.58;;;;;;;21.16;57.15;101152.64;5063645;57;1141053;-75
2021/06/06 07:07:33;;;;;;;9.10;5.35;;;;;;;21.28;57.42;101149.94;5063585;57;1138389;-73
2021/06/06 07:12:38;;;;;;;11.68;5.08;;;;;;;21.45;56.03;101151.22;5063602;57;1138723;-74
2021/06/06 07:17:45;;;;;;;6.30;5.67;;;;;;;21.63;56.28;101145.09;5063712;57;1140566;-74
2021/06/06 07:22:51;;;;;;;7.92;4.75;;;;;;;21.86;56.35;101142.43;5075180;57;1138545;-76
2021/06/06 07:27:58;;;;;;;6.95;5.40;;;;;;;22.08;56.16;101144.36;4897947;58;1138577;-75
2021/06/06 07:33:06;;;;;;;8.15;5.08;;;;;;;22.32;55.07;101140.64;4977933;58;1138705;-74
2021/06/06 07:38:13;;;;;;;7.00;5.28;;;;;;;22.49;54.94;101138.14;4977813;58;1138577;-74
2021/06/06 07:43:19;;;;;;;7.75;5.30;;;;;;;22.62;55.12;101139.71;4977990;58;1138615;-75
2021/06/06 07:48:25;;;;;;;5.50;4.83;;;;;;;22.91;54.35;101141.68;4978193;58;1138647;-76
2021/06/06 07:53:31;;;;;;;6.12;5.45;;;;;;;23.12;54.43;101139.59;4977814;58;1138559;-76
2021/06/06 07:58:38;;;;;;;4.55;4.15;;;;;;;23.35;53.35;101139.50;4960941;58;1138656;-72
2021/06/06 08:03:44;;;;;;;5.28;4.58;;;;;;;23.48;53.21;101133.77;4941614;58;1138840;-74
2021/06/06 08:08:52;;;;;;;6.46;5.06;;;;;;;23.49;52.46;101132.73;4995276;58;1138429;-76
2021/06/06 08:13:58;;;;;;;12.00;5.40;;;;;;;23.60;51.24;101130.60;4988235;58;1138494;-76
2021/06/06 08:19:06;;;;;;;6.50;4.20;;;;;;;23.66;50.31;101129.86;4978241;58;1140919;-76
2021/06/06 08:24:12;;;;;;;7.72;3.95;;;;;;;23.71;50.43;101122.84;4977819;58;1138481;-73
2021/06/06 08:29:18;;;;;;;6.40;4.70;;;;;;;23.88;51.76;101120.75;4978252;58;1138703;-76
2021/06/06 08:34:24;;;;;;;6.00;3.83;;;;;;;24.04;51.28;101127.27;4978088;58;1138548;-73
2021/06/06 08:39:35;;;;;;;4.08;3.60;;;;;;;23.94;48.83;101129.97;4978137;58;1138829;-76
2021/06/06 08:44:55;;;;;;;3.95;3.60;;;;;;;24.17;50.29;101132.80;4977741;58;1138481;-76
2021/06/06 08:50:09;;;;;;;5.87;3.30;;;;;;;24.41;48.98;101132.97;4978296;58;1138530;-74
2021/06/06 08:55:49;;;;;;;7.22;3.65;;;;;;;24.62;47.39;101135.31;4977934;58;1139073;-76
2021/06/06 09:01:02;;;;;;;6.25;3.15;;;;;;;24.73;46.25;101128.03;4979079;58;1138555;-76
2021/06/06 09:06:12;;;;;;;6.72;3.33;;;;;;;24.69;46.53;101126.75;4978592;58;1138656;-75
2021/06/06 09:11:21;;;;;;;4.25;2.90;;;;;;;24.75;44.33;101123.27;4978774;58;1138726;-73
2021/06/06 09:16:32;;;;;;;21.20;3.90;;;;;;;24.92;44.94;101119.72;4978724;58;1138606;-76
2021/06/06 09:21:58;;;;;;;5.27;3.43;;;;;;;25.17;44.54;101119.09;4978407;58;1140570;-76
2021/06/06 09:27:12;;;;;;;5.30;3.03;;;;;;;25.39;44.19;101109.50;4870659;58;1148278;-74
2021/06/06 09:32:23;;;;;;;3.20;3.00;;;;;;;25.51;44.03;101106.00;4884947;59;1138928;-75
2021/06/06 09:37:30;;;;;;;5.23;2.90;;;;;;;25.66;43.14;101110.49;4885398;59;1138762;-77
2021/06/06 09:42:44;;;;;;;3.92;2.70;;;;;;;25.85;43.35;101109.17;4884948;59;1138589;-74
2021/06/06 09:48:15;;;;;;;10.18;2.85;;;;;;;25.80;42.68;101113.04;4885036;59;1138509;-73
2021/06/06 09:53:35;;;;;;;3.58;2.92;;;;;;;25.46;41.56;101115.27;4884483;59;1140649;-75
2021/06/06 09:58:42;;;;;;;8.38;3.17;;;;;;;25.17;42.07;101112.84;4880793;59;1138595;-75
2021/06/06 10:03:57;;;;;;;3.87;3.25;;;;;;;24.86;43.12;101113.24;4837451;59;1138473;-76
2021/06/06 10:09:22;;;;;;;3.50;3.03;;;;;;;25.06;45.30;101116.09;4916568;59;1138667;-76
2021/06/06 10:14:47;;;;;;;4.35;2.47;;;;;;;25.45;45.00;101112.25;4752119;60;1139144;-74
2021/06/06 10:20:32;;;;;;;9.03;2.67;;;;;;;25.85;42.78;101109.17;4747370;60;1246959;-76
2021/06/06 10:25:51;;;;;;;6.75;2.58;;;;;;;26.12;40.85;101108.73;4751416;60;1138893;-76
2021/06/06 10:31:16;;;;;;;5.60;2.55;;;;;;;26.45;40.43;101102.50;4839184;58;1138653;-75
2021/06/06 10:36:26;;;;;;;3.15;2.80;;;;;;;26.60;38.77;101100.41;4863954;58;1138611;-75
2021/06/06 10:41:48;;;;;;;4.50;2.70;;;;;;;26.73;38.84;101094.16;4785875;60;1138459;-73
2021/06/06 10:47:14;;;;;;;5.75;2.98;;;;;;;26.69;38.46;101099.69;4866371;60;1138513;-76
2021/06/06 10:52:33;;;;;;;4.80;2.58;;;;;;;26.39;39.14;101088.44;4867691;59;1138664;-76
2021/06/06 10:57:41;;;;;;;4.50;2.47;;;;;;;26.20;38.84;101094.13;4789895;60;1139194;-74
2021/06/06 11:03:09;;;;;;;9.33;2.40;;;;;;;25.87;39.07;101095.42;4897100;58;1139140;-74
2021/06/06 11:08:31;;;;;;;5.85;3.22;;;;;;;26.04;39.98;101087.22;4865882;58;1138893;-74
2021/06/06 11:13:44;;;;;;;6.08;2.67;;;;;;;26.44;39.68;101087.27;4897239;58;1138752;-74
2021/06/06 11:18:58;;;;;;;3.10;2.80;;;;;;;26.80;38.88;101081.40;4919645;58;1138821;-76
2021/06/06 11:24:14;;;;;;;6.42;2.83;;;;;;;27.04;39.43;101084.80;5022297;57;1138765;-76
2021/06/06 11:29:22;;;;;;;3.08;2.87;;;;;;;27.02;39.18;101082.02;4785008;59;1138990;-73
2021/06/06 11:34:33;;;;;;;6.83;3.05;;;;;;;26.79;37.57;101077.84;4788937;60;1138848;-74
2021/06/06 11:39:45;;;;;;;2.40;2.30;;;;;;;26.68;37.92;101073.59;4789201;60;1138761;-75
2021/06/06 11:45:11;;;;;;;17.00;2.52;;;;;;;26.55;37.35;101077.16;4577728;62;1138718;-75
2021/06/06 11:50:30;;;;;;;2.87;2.67;;;;;;;26.65;37.12;101065.34;4577318;62;1140738;-75
2021/06/06 11:55:49;;;;;;;4.75;2.20;;;;;;;26.78;37.87;101064.48;4577476;62;1138506;-75
2021/06/06 12:01:07;;;;;;;3.05;2.30;;;;;;;27.23;37.94;101055.92;4577636;62;1139187;-75
2021/06/06 12:06:19;;;;;;;5.30;2.13;;;;;;;27.49;35.73;101042.77;4686623;60;1139452;-75
2021/06/06 12:11:34;;;;;;;2.60;2.30;;;;;;;27.72;36.03;101051.73;4886505;59;1139093;-75
2021/06/06 12:17:02;;;;;;;5.33;2.62;;;;;;;27.86;36.31;101039.72;4810354;60;1139022;-75
2021/06/06 12:22:22;;;;;;;2.83;2.35;;;;;;;27.98;36.53;101037.44;4886543;59;1138926;-75
2021/06/06 12:27:30;;;;;;;2.85;2.37;;;;;;;27.99;34.89;101040.98;4886455;59;1139248;-74
2021/06/06 12:32:39;;;;;;;3.12;2.70;;;;;;;27.99;36.24;101045.06;4799317;60;1138907;-75
2021/06/06 12:37:49;;;;;;;8.05;2.20;;;;;;;27.81;35.75;101039.02;4789219;60;1138995;-76
2021/06/06 12:43:18;;;;;;;29.55;3.45;;;;;;;27.85;36.95;101041.61;4978289;58;1139175;-73
2021/06/06 12:48:31;;;;;;;3.00;2.80;;;;;;;27.93;36.32;101030.48;4877845;58;1141016;-74
2021/06/06 12:53:38;;;;;;;4.05;2.85;;;;;;;27.94;35.88;101035.40;4854264;58;1138792;-75
2021/06/06 12:58:46;;;;;;;4.92;2.55;;;;;;;27.90;35.85;101032.28;4838316;60;1138964;-74
2021/06/06 13:03:54;;;;;;;4.97;3.85;;;;;;;27.87;36.35;101027.80;4838525;60;1138915;-75
2021/06/06 13:09:26;;;;;;;8.22;2.58;;;;;;;28.06;35.64;101028.19;4838525;60;1138985;-75
2021/06/06 13:14:38;;;;;;;5.90;1.83;;;;;;;28.12;34.13;101021.84;4838754;60;1138615;-76
2021/06/06 13:19:45;;;;;;;5.35;2.95;;;;;;;28.13;34.67;101024.03;4837100;60;1139050;-74
2021/06/06 13:24:53;;;;;;;4.37;2.45;;;;;;;27.79;33.52;101022.64;4890151;58;1138603;-74
2021/06/06 13:30:19;;;;;;;7.58;2.60;;;;;;;27.45;33.93;101026.05;4904406;58;1138682;-75
2021/06/06 13:35:28;;;;;;;2.65;2.15;;;;;;;27.30;33.76;101026.86;4915806;57;1138382;-74
2021/06/06 13:40:38;;;;;;;6.55;2.67;;;;;;;27.12;34.61;101015.34;4915744;58;1138426;-74
2021/06/06 13:45:45;;;;;;;4.70;3.17;;;;;;;27.40;35.28;101016.36;4915265;58;1138333;-74
2021/06/06 13:50:52;;;;;;;7.25;2.87;;;;;;;27.72;35.51;101014.52;4916043;58;1138403;-75
2021/06/06 13:55:59;;;;;;;2.70;2.50;;;;;;;27.94;34.94;101010.92;4916125;58;1138430;-75
2021/06/06 14:01:05;;;;;;;17.87;14.35;;;;;;;28.03;35.14;101012.83;4915641;58;1138424;-74
2021/06/06 14:06:14;;;;;;;3.77;3.47;;;;;;;27.85;34.20;101006.27;4915658;58;1142695;-73
2021/06/06 14:11:26;;;;;;;5.78;3.45;;;;;;;27.97;36.10;101007.22;4915702;58;1138495;-74
2021/06/06 14:16:33;;;;;;;3.17;2.77;;;;;;;28.09;35.89;101003.27;4915531;58;1138682;-75
2021/06/06 14:21:40;;;;;;;2.98;2.42;;;;;;;28.13;35.15;101005.83;4915821;58;1138472;-75
2021/06/06 14:26:51;;;;;;;2.70;2.50;;;;;;;28.12;34.24;101003.33;4916142;58;1138536;-74
2021/06/06 14:31:57;;;;;;;2.57;2.47;;;;;;;27.95;34.48;101007.16;4916315;58;1138412;-76
2021/06/06 14:37:02;;;;;;;5.47;2.47;;;;;;;28.00;34.50;101012.74;5020865;57;1138764;-74
2021/06/06 14:42:09;;;;;;;2.90;2.13;;;;;;;27.76;32.03;101008.12;5064076;57;1138633;-74
2021/06/06 14:47:14;;;;;;;2.60;2.50;;;;;;;27.66;32.95;101009.42;5064404;57;1138738;-77
2021/06/06 14:52:20;;;;;;;3.10;2.85;;;;;;;27.67;31.73;101010.26;5064207;57;1138618;-77
2021/06/06 14:57:27;;;;;;;2.15;2.05;;;;;;;27.82;32.56;101000.44;5063964;57;1138744;-76
2021/06/06 15:02:33;;;;;;;3.17;2.17;;;;;;;27.93;31.61;101002.46;5029613;57;1138750;-78
2021/06/06 15:07:40;;;;;;;4.97;2.10;;;;;;;28.01;32.93;100998.09;4990271;58;1138535;-74
2021/06/06 15:12:46;;;;;;;2.20;2.10;;;;;;;28.15;31.15;100995.56;5035157;57;1138692;-76
2021/06/06 15:17:52;;;;;;;4.28;2.30;;;;;;;28.24;30.57;100983.92;5035945;57;1138453;-76
2021/06/06 15:23:03;;;;;;;4.03;2.12;;;;;;;28.19;30.96;100983.75;5083268;57;1139085;-76
2021/06/06 15:28:19;;;;;;;3.22;2.77;;;;;;;28.16;31.50;100985.52;5061331;57;1139279;-77
2021/06/06 15:33:31;;;;;;;2.47;2.35;;;;;;;28.00;31.36;100982.83;5061553;57;1139372;-75
2021/06/06 15:38:49;;;;;;;4.62;2.90;;;;;;;28.22;33.09;100963.74;4960536;57;1138796;-74
2021/06/06 15:43:58;;;;;;;5.87;2.80;;;;;;;28.22;33.09;100963.74;4915684;58;1138793;-74
2021/06/06 15:49:05;;;;;;;3.00;2.74;;;;;;;28.45;33.03;100958.99;4915591;58;1138574;-75
2021/06/06 15:54:17;;;;;;;10.73;3.20;;;;;;;28.61;33.63;100951.59;4915520;58;1139255;-77
2021/06/06 15:59:27;;;;;;;5.58;2.35;;;;;;;28.77;33.67;100953.41;4906590;58;1140472;-75
2021/06/06 16:04:34;;;;;;;4.12;2.87;;;;;;;28.84;33.54;100950.12;4915506;58;1138387;-74
2021/06/06 16:09:40;;;;;;;4.92;2.15;;;;;;;28.88;33.54;100949.94;4904079;58;1138613;-77
2021/06/06 16:14:46;;;;;;;3.60;2.45;;;;;;;28.81;33.10;100940.51;4912557;58;1139080;-78
2021/06/06 16:19:54;;;;;;;3.17;2.92;;;;;;;28.72;33.02;100934.22;4915712;58;1138888;-76
2021/06/06 16:25:01;;;;;;;4.12;2.42;;;;;;;28.44;31.85;100934.73;4913935;58;1139144;-74
2021/06/06 16:30:10;;;;;;;10.48;2.72;;;;;;;28.42;32.04;100928.67;4912161;58;1138637;-74
2021/06/06 16:35:17;;;;;;;4.25;2.90;;;;;;;28.44;32.88;100927.92;4915480;58;1140705;-74
2021/06/06 16:40:26;;;;;;;4.25;2.72;;;;;;;28.39;32.48;100925.07;4915509;58;1138599;-76
2021/06/06 16:45:37;;;;;;;5.15;2.87;;;;;;;28.31;32.39;100924.30;4915668;58;1138799;-77
2021/06/06 16:50:45;;;;;;;7.97;3.13;;;;;;;28.16;32.99;100925.68;4915782;58;1138596;-77
2021/06/06 16:55:56;;;;;;;7.90;2.55;;;;;;;28.09;32.94;100917.61;4915331;58;1138612;-76
2021/06/06 17:01:13;;;;;;;4.13;2.13;;;;;;;28.01;33.09;100921.42;4915617;58;1138666;-76
2021/06/06 17:06:19;;;;;;;5.90;4.62;;;;;;;27.95;32.87;100920.98;4915371;58;1138717;-76
2021/06/06 17:11:28;;;;;;;14.40;11.80;;;;;;;27.76;33.87;100916.55;4915320;58;1138716;-77
2021/06/06 17:16:34;;;;;;;36.50;19.12;;;;;;;27.76;33.87;100916.55;4913894;58;1143313;-75
2021/06/06 17:21:40;;;;;;;11.53;6.72;;;;;;;27.74;33.63;100920.53;4914231;58;1142490;-74
2021/06/06 17:26:46;;;;;;;20.92;11.05;;;;;;;27.56;34.27;100915.34;4914945;58;1140525;-74
2021/06/06 17:31:53;;;;;;;16.15;4.83;;;;;;;27.36;34.71;100921.39;4914817;58;1142585;-75
2021/06/06 17:36:59;;;;;;;12.37;4.33;;;;;;;27.31;35.55;100917.16;4914886;58;1141006;-74
2021/06/06 17:42:06;;;;;;;8.03;3.62;;;;;;;27.15;35.88;100929.91;5022776;57;1140731;-74
2021/06/06 17:47:12;;;;;;;10.03;3.72;;;;;;;27.05;35.48;100936.31;5063817;57;1138946;-75
2021/06/06 17:52:17;;;;;;;4.58;4.05;;;;;;;27.02;35.88;100932.69;5063730;57;1140618;-75
2021/06/06 17:57:24;;;;;;;10.25;3.10;;;;;;;27.04;35.79;100937.38;5023269;57;1138434;-75
2021/06/06 18:02:29;;;;;;;19.12;3.50;;;;;;;26.98;35.86;100940.95;5020541;57;1140482;-75
2021/06/06 18:07:36;;;;;;;12.63;3.55;;;;;;;26.84;36.52;100943.70;5062972;57;1141085;-77
2021/06/06 18:12:43;;;;;;;15.58;3.00;;;;;;;26.50;36.72;100946.21;5063350;57;1140493;-77
2021/06/06 18:17:49;;;;;;;6.25;2.42;;;;;;;26.25;37.49;100946.55;5063281;57;1140730;-78
2021/06/06 18:22:56;;;;;;;7.87;3.15;;;;;;;26.14;38.12;100958.02;5063533;57;1138624;-74
2021/06/06 18:28:05;;;;;;;12.25;3.22;;;;;;;26.11;38.57;100965.24;5065597;57;1139058;-77
2021/06/06 18:33:12;;;;;;;23.10;3.67;;;;;;;26.05;38.64;100957.94;5061965;57;1141067;-77
2021/06/06 18:38:19;;;;;;;5.15;2.62;;;;;;;25.93;38.95;100966.70;5059823;57;1141082;-77
2021/06/06 18:43:27;;;;;;;19.75;5.40;;;;;;;25.81;39.41;100971.09;4959889;57;1138906;-73
2021/06/06 18:48:34;;;;;;;19.98;5.60;;;;;;;25.72;40.23;100968.25;4911579;58;1141199;-74
2021/06/06 18:53:41;;;;;;;6.83;4.37;;;;;;;25.66;40.62;100974.52;4911321;58;1140961;-74
2021/06/06 18:58:50;;;;;;;11.38;3.80;;;;;;;25.53;41.08;100979.33;4911254;58;1139195;-76
2021/06/06 19:03:58;;;;;;;7.45;3.42;;;;;;;25.32;41.35;100981.38;4911817;58;1141002;-74
2021/06/06 19:09:13;;;;;;;8.65;3.00;;;;;;;25.16;41.67;100985.28;4911862;58;1139077;-78
2021/06/06 19:14:22;;;;;;;12.78;3.37;;;;;;;25.02;41.79;100995.23;4915513;58;1139413;-73
2021/06/06 19:19:28;;;;;;;9.53;3.42;;;;;;;25.04;42.46;101005.86;4915438;58;1141295;-73
2021/06/06 19:24:34;;;;;;;10.28;3.90;;;;;;;25.11;42.89;101006.70;4915616;58;1138945;-75
2021/06/06 19:29:42;;;;;;;10.98;3.50;;;;;;;25.06;42.71;101013.23;4912447;58;1140946;-75
2021/06/06 19:34:49;;;;;;;22.20;3.85;;;;;;;24.89;42.98;101012.73;4915371;58;1141029;-74
2021/06/06 19:39:56;;;;;;;28.55;6.35;;;;;;;24.82;43.43;101015.39;4915422;58;1140957;-74
2021/06/06 19:45:09;;;;;;;15.58;6.28;;;;;;;24.84;43.52;101013.84;5014402;57;1140990;-75
2021/06/06 19:50:16;;;;;;;39.10;9.70;;;;;;;24.86;43.62;101016.67;5063763;57;1144971;-73
2021/06/06 19:55:26;;;;;;;23.73;15.18;;;;;;;24.82;43.87;101022.16;5063910;57;1140995;-73
2021/06/06 20:00:45;;;;;;;11.30;6.40;;;;;;;24.68;44.02;101026.34;5058087;57;1143391;-75
2021/06/06 20:05:50;;;;;;;6.00;4.37;;;;;;;24.47;44.43;101025.36;5057893;57;1141260;-74
2021/06/06 20:10:59;;;;;;;11.28;4.33;;;;;;;24.36;44.96;101030.48;5063608;57;1139161;-76
2021/06/06 20:16:10;;;;;;;15.00;8.80;;;;;;;24.24;45.19;101031.54;5020625;57;1141118;-75
2021/06/06 20:21:23;;;;;;;31.77;11.93;;;;;;;24.22;45.48;101039.48;5062464;57;1141011;-76
2021/06/06 20:26:29;;;;;;;32.85;15.93;;;;;;;24.16;45.63;101036.52;5062099;57;1142930;-73
2021/06/06 20:31:41;;;;;;;30.56;14.20;;;;;;;24.08;45.98;101038.03;5062365;57;1142734;-75
2021/06/06 20:36:50;;;;;;;15.90;9.00;;;;;;;23.90;46.08;101034.11;5095432;57;1143023;-73
2021/06/06 20:42:04;;;;;;;18.95;11.78;;;;;;;23.64;46.19;101041.44;5095382;57;1140645;-77
2021/06/06 20:47:14;;;;;;;17.62;10.20;;;;;;;23.40;47.19;101047.46;5001441;57;1142803;-75
2021/06/06 20:52:23;;;;;;;24.87;8.78;;;;;;;23.25;47.50;101042.60;4974745;58;1143171;-76
2021/06/06 20:57:29;;;;;;;18.55;9.23;;;;;;;23.15;47.95;101045.61;4974553;58;1140618;-74
2021/06/06 21:02:35;;;;;;;25.88;10.95;;;;;;;22.82;48.36;101048.88;4978111;58;1140520;-75
2021/06/06 21:07:42;;;;;;;20.10;9.68;;;;;;;22.70;49.07;101047.13;4978118;58;1142872;-74
2021/06/06 21:12:48;;;;;;;25.82;12.15;;;;;;;22.58;49.46;101042.70;4978152;58;1140490;-75
2021/06/06 21:17:56;;;;;;;22.65;12.68;;;;;;;22.61;50.15;101051.75;4978318;58;1142585;-73
2021/06/06 21:23:02;;;;;;;32.33;12.55;;;;;;;22.58;50.13;101042.70;4978184;58;1143096;-75
2021/06/06 21:28:08;;;;;;;20.65;12.40;;;;;;;22.58;50.27;101044.56;4978105;58;1142763;-73
2021/06/06 21:33:19;;;;;;;28.80;13.25;;;;;;;22.57;50.59;101046.42;4978329;58;1142692;-73
2021/06/06 21:38:26;;;;;;;45.00;15.13;;;;;;;22.49;50.75;101047.00;4978423;58;1142581;-73
2021/06/06 21:43:32;;;;;;;40.48;15.70;;;;;;;22.25;50.96;101052.12;4977951;58;1142628;-74
2021/06/06 21:48:39;;;;;;;31.85;9.38;;;;;;;22.05;51.30;101048.57;4976721;58;1142839;-75
2021/06/06 21:53:46;;;;;;;15.10;6.30;;;;;;;21.98;51.84;101057.53;4976079;58;1140698;-73
2021/06/06 21:58:52;;;;;;;13.15;7.35;;;;;;;21.66;52.27;101060.78;4976019;58;1140629;-73
2021/06/06 22:03:59;;;;;;;10.15;7.70;;;;;;;21.43;52.77;101065.78;4975887;58;1140501;-72
2021/06/06 22:09:09;;;;;;;12.45;6.15;;;;;;;21.30;53.21;101064.50;4975873;58;1140685;-76
2021/06/06 22:14:18;;;;;;;10.00;7.33;;;;;;;21.34;53.52;101062.30;4916083;58;1141135;-76
2021/06/06 22:20:19;;;;;;;15.20;7.42;;;;;;;21.37;53.57;101068.69;4915619;58;1140985;-75
2021/06/06 22:26:19;;;;;;;9.23;6.63;;;;;;;21.36;53.08;101072.39;4915596;58;1140958;-75
2021/06/06 22:32:19;;;;;;;9.78;5.97;;;;;;;21.18;52.58;101073.95;4915668;58;1138889;-75
2021/06/06 22:38:19;;;;;;;9.70;6.10;;;;;;;21.10;53.11;101069.92;4915809;58;1138858;-73
2021/06/06 22:44:20;;;;;;;9.78;6.87;;;;;;;21.13;53.36;101072.27;4915571;58;1138652;-75
2021/06/06 22:50:20;;;;;;;9.97;7.00;;;;;;;21.14;53.28;101067.73;4977995;57;1138491;-73
2021/06/06 22:56:21;;;;;;;13.95;6.95;;;;;;;21.08;53.21;101070.63;5064131;57;1138546;-74
2021/06/06 23:02:21;;;;;;;7.80;6.67;;;;;;;20.97;53.03;101079.05;5063697;57;1141288;-73
2021/06/06 23:08:21;;;;;;;13.58;7.72;;;;;;;20.80;53.11;101077.41;5064016;57;1139171;-75
2021/06/06 23:14:21;;;;;;;10.75;7.30;;;;;;;20.66;53.07;101073.59;5063686;57;1140544;-73
2021/06/06 23:19:41;;;;;;;9.40;6.97;;;;;;;20.46;52.99;101079.01;5063459;57;1140770;-75
2021/06/06 23:25:00;;;;;;;9.65;6.42;;;;;;;20.06;53.43;101087.35;5063271;57;1138442;-73
2021/06/06 23:30:14;;;;;;;10.13;5.60;;;;;;;19.81;54.08;101088.34;5063504;57;1138385;-76